Time;durP1;ratioP1;P1;durP2;ratioP2;P2;SDS_P1;SDS_P2;PMS_P1;PMS_P2;Temp;Humidity;BMP_temperature;BMP_pressure;BME280_temperature;BME280_humidity;BME280_pressure;Samples;Min_cycle;Max_cycle;Signal;HPM_P1;HPM_P2
2022/05/12 00:01:41;;;;;;;;;;;;;;;-140.72;100.00;52488.25;4975108;28;20031;-70
2022/05/12 00:04:06;;;;;;;;;;;;;;;-140.72;100.00;52508.56;4973455;28;19973;-70
2022/05/12 00:06:32;;;;;;;;;;;;;;;-140.72;100.00;52494.34;4974188;28;20010;-70
2022/05/12 00:08:57;;;;;;;;;;;;;;;-140.72;100.00;52520.72;4975287;28;19953;-70
2022/05/12 00:11:22;;;;;;;;;;;;;;;-140.72;100.00;52530.88;4975091;28;19918;-70
2022/05/12 00:13:47;;;;;;;;;;;;;;;-140.72;100.00;52551.16;4974766;28;19922;-70
2022/05/12 00:16:13;;;;;;;;;;;;;;;-140.72;100.00;52528.84;4973860;28;19918;-70
2022/05/12 00:18:38;;;;;;;;;;;;;;;-140.72;100.00;52545.06;4974490;28;19972;-70
2022/05/12 00:21:03;;;;;;;;;;;;;;;-140.72;100.00;52539.00;4972882;28;19965;-70
2022/05/12 00:23:28;;;;;;;;;;;;;;;-140.72;100.00;52543.03;4974639;28;20009;-70
2022/05/12 00:25:54;;;;;;;;;;;;;;;-140.72;100.00;52522.75;4974377;28;20059;-70
2022/05/12 00:28:21;;;;;;;;;;;;;;;-140.72;100.00;52500.44;4974413;28;19933;-70
2022/05/12 00:30:47;;;;;;;;;;;;;;;-140.72;100.00;52530.88;4974419;28;19918;-70
2022/05/12 00:33:13;;;;;;;;;;;;;;;-140.72;100.00;52551.16;4974400;28;20008;-70
2022/05/12 00:35:38;;;;;;;;;;;;;;;-140.72;100.00;52508.56;4974203;28;20329;-70
2022/05/12 00:38:04;;;;;;;;;;;;;;;-140.72;100.00;52545.06;4974307;28;19918;-70
2022/05/12 00:40:29;;;;;;;;;;;;;;;-140.72;100.00;52541.03;4974370;28;19922;-70
2022/05/12 00:42:59;;;;;;;;;;;;;;;-140.72;100.00;52518.69;4974306;28;19992;-70
2022/05/12 00:45:26;;;;;;;;;;;;;;;-140.72;100.00;52545.06;4973976;28;20401;-70
2022/05/12 00:47:51;;;;;;;;;;;;;;;-140.72;100.00;52528.84;4973036;28;19918;-70
2022/05/12 00:50:18;;;;;;;;;;;;;;;-140.72;100.00;52555.22;4974795;28;19937;-70
2022/05/12 00:52:43;;;;;;;;;;;;;;;-140.72;100.00;52516.66;4973923;28;19968;-70
2022/05/12 00:55:12;;;;;;;;;;;;;;;-140.72;100.00;52524.78;4973445;28;19918;-70
2022/05/12 00:57:39;;;;;;;;;;;;;;;-140.72;100.00;52530.88;4974700;28;19919;-70
2022/05/12 01:00:08;;;;;;;;;;;;;;;-140.72;100.00;52518.69;4974011;28;19925;-70
2022/05/12 01:02:33;;;;;;;;;;;;;;;-140.72;100.00;52508.56;4974340;28;20393;-70
2022/05/12 01:04:58;;;;;;;;;;;;;;;-140.72;100.00;52532.91;4974248;28;19918;-70
2022/05/12 01:07:24;;;;;;;;;;;;;;;-140.72;100.00;52545.06;4973021;28;19918;-70
2022/05/12 01:09:49;;;;;;;;;;;;;;;-140.72;100.00;52543.03;4974313;28;20273;-70
2022/05/12 01:12:14;;;;;;;;;;;;;;;-140.72;100.00;52569.44;4974184;28;20358;-70
2022/05/12 01:14:39;;;;;;;;;;;;;;;-140.72;100.00;52524.78;4988823;28;19968;-70
2022/05/12 01:17:05;;;;;;;;;;;;;;;-140.72;100.00;52526.81;4973876;28;19918;-70
2022/05/12 01:19:35;;;;;;;;;;;;;;;-140.72;100.00;52504.50;4973701;28;20001;-70
2022/05/12 01:22:01;;;;;;;;;;;;;;;-140.72;100.00;52534.94;4974223;28;19941;-70
2022/05/12 01:24:31;;;;;;;;;;;;;;;-140.72;100.00;52536.97;4975644;28;19918;-70
2022/05/12 01:26:56;;;;;;;;;;;;;;;-140.72;100.00;52557.25;4977631;28;19976;-71
2022/05/12 01:29:21;;;;;;;;;;;;;;;-140.72;100.00;52532.91;4979444;28;19957;-70
2022/05/12 01:31:46;;;;;;;;;;;;;;;-140.72;100.00;52559.28;4979547;28;20017;-70
2022/05/12 01:34:12;;;;;;;;;;;;;;;-140.72;100.00;52545.06;4979392;28;20027;-70
2022/05/12 01:36:38;;;;;;;;;;;;;;;-140.72;100.00;52532.91;4978015;28;20357;-70
2022/05/12 01:39:05;;;;;;;;;;;;;;;-140.72;100.00;52516.66;4978138;28;19965;-70
2022/05/12 01:41:30;;;;;;;;;;;;;;;-140.72;100.00;52541.03;4978331;28;19921;-70
2022/05/12 01:43:56;;;;;;;;;;;;;;;-140.72;100.00;52541.03;4978762;28;19981;-70
2022/05/12 01:46:21;;;;;;;;;;;;;;;-140.72;100.00;52514.63;4978396;28;19930;-70
2022/05/12 01:51:41;;;;;;;;;;;;;;;-140.72;100.00;52524.78;4978578;28;19918;-70
2022/05/12 01:54:20;;;;;;;;;;;;;;;-140.72;100.00;52530.88;4976835;28;20291;-70
2022/05/12 01:56:45;;;;;;;;;;;;;;;-140.72;100.00;52541.03;4979409;28;19918;-71
2022/05/12 01:59:10;;;;;;;;;;;;;;;-140.72;100.00;52532.91;4970955;28;20403;-70
2022/05/12 02:01:35;;;;;;;;;;;;;;;-140.72;100.00;52520.72;4997079;28;19918;-70
2022/05/12 02:04:15;;;;;;;;;;;;;;;-140.72;100.00;52545.06;4997316;28;19933;-70
2022/05/12 02:06:40;;;;;;;;;;;;;;;-140.72;100.00;52508.56;4996235;28;19967;-70
2022/05/12 02:09:06;;;;;;;;;;;;;;;-140.72;100.00;52581.59;4996350;28;20292;-70
2022/05/12 02:11:32;;;;;;;;;;;;;;;-140.72;100.00;52547.09;4996585;28;19918;-70
2022/05/12 02:13:57;;;;;;;;;;;;;;;-140.72;100.00;52539.00;4996520;28;19926;-70
2022/05/12 02:16:24;;;;;;;;;;;;;;;-140.72;100.00;52541.03;5010963;28;19972;-70
2022/05/12 02:18:50;;;;;;;;;;;;;;;-140.72;100.00;52545.06;4996188;28;19918;-70
2022/05/12 02:21:15;;;;;;;;;;;;;;;-140.72;100.00;52555.22;4996152;28;19980;-70
2022/05/12 02:23:40;;;;;;;;;;;;;;;-140.72;100.00;52524.78;4995233;28;19933;-70
2022/05/12 02:26:06;;;;;;;;;;;;;;;-140.72;100.00;52583.63;4996100;28;19949;-70
2022/05/12 02:28:31;;;;;;;;;;;;;;;-140.72;100.00;52541.03;4996352;28;19928;-70
2022/05/12 02:30:56;;;;;;;;;;;;;;;-140.72;100.00;52541.03;4995169;28;19941;-70
2022/05/12 02:33:23;;;;;;;;;;;;;;;-140.72;100.00;52536.97;5024003;22;19945;-81
2022/05/12 02:35:48;;;;;;;;;;;;;;;-140.72;100.00;52506.53;5010777;28;19921;-81
2022/05/12 02:38:14;;;;;;;;;;;;;;;-140.72;100.00;52557.25;5013794;28;19930;-81
2022/05/12 02:41:00;;;;;;;;;;;;;;;-140.72;100.00;52581.59;5015220;28;20323;-81
2022/05/12 02:43:25;;;;;;;;;;;;;;;-140.72;100.00;52532.91;5014975;28;20321;-81
2022/05/12 02:45:58;;;;;;;;;;;;;;;-140.72;100.00;52555.22;5015054;28;20028;-81
2022/05/12 02:48:27;;;;;;;;;;;;;;;-140.72;100.00;52532.91;5014710;28;20000;-81
2022/05/12 02:51:02;;;;;;;;;;;;;;;-140.72;100.00;52520.72;5014475;28;19925;-81
2022/05/12 02:53:28;;;;;;;;;;;;;;;-140.72;100.00;52577.53;5013856;28;19925;-81
2022/05/12 02:55:59;;;;;;;;;;;;;;;-140.72;100.00;52567.41;5013806;28;20018;-81
2022/05/12 02:58:25;;;;;;;;;;;;;;;-140.72;100.00;52536.97;4994282;28;19957;-81
2022/05/12 03:00:52;;;;;;;;;;;;;;;-140.72;100.00;52563.34;4994628;28;19973;-81
2022/05/12 03:03:17;;;;;;;;;;;;;;;-140.72;100.00;52545.06;4993940;28;19969;-81
2022/05/12 03:05:55;;;;;;;;;;;;;;;-140.72;100.00;52571.47;4994126;28;19925;-81
2022/05/12 03:08:20;;;;;;;;;;;;;;;-140.72;100.00;52514.63;5000596;28;19940;-82
2022/05/12 03:10:45;;;;;;;;;;;;;;;-140.72;100.00;52520.72;5013679;28;19969;-83
2022/05/12 03:13:10;;;;;;;;;;;;;;;-140.72;100.00;52549.13;5014075;28;19918;-84
2022/05/12 03:15:36;;;;;;;;;;;;;;;-140.72;100.00;52545.06;5010885;28;19917;-83
2022/05/12 03:18:01;;;;;;;;;;;;;;;-140.72;100.00;52559.28;5013449;28;20001;-83
2022/05/12 03:20:27;;;;;;;;;;;;;;;-140.72;100.00;52541.03;5012886;28;19918;-82
2022/05/12 03:22:53;;;;;;;;;;;;;;;-140.72;100.00;52553.19;5013423;28;20095;-82
2022/05/12 03:25:19;;;;;;;;;;;;;;;-140.72;100.00;52557.25;5012905;28;19988;-81
2022/05/12 03:27:45;;;;;;;;;;;;;;;-140.72;100.00;52565.38;5013252;28;19932;-82
2022/05/12 03:30:12;;;;;;;;;;;;;;;-140.72;100.00;52563.34;5013303;28;19997;-81
2022/05/12 03:32:37;;;;;;;;;;;;;;;-140.72;100.00;52561.31;5012608;28;19918;-82
2022/05/12 03:35:05;;;;;;;;;;;;;;;-140.72;100.00;52557.25;5010497;28;19932;-82
2022/05/12 03:37:31;;;;;;;;;;;;;;;-140.72;100.00;52545.06;5009318;28;19929;-81
2022/05/12 03:39:56;;;;;;;;;;;;;;;-140.72;100.00;52502.47;5010202;28;20008;-81
2022/05/12 03:42:24;;;;;;;;;;;;;;;-140.72;100.00;52585.66;5012050;28;19918;-82
2022/05/12 03:44:50;;;;;;;;;;;;;;;-140.72;100.00;52528.84;5013308;28;19945;-82
2022/05/12 03:47:33;;;;;;;;;;;;;;;-140.72;100.00;52581.59;5009532;28;20360;-82
2022/05/12 03:50:03;;;;;;;;;;;;;;;-140.72;100.00;52563.34;5010415;28;19921;-81
2022/05/12 03:52:29;;;;;;;;;;;;;;;-140.72;100.00;52569.44;5013624;28;19921;-82
2022/05/12 03:54:54;;;;;;;;;;;;;;;-140.72;100.00;52530.88;5013390;28;20834;-83
2022/05/12 03:57:20;;;;;;;;;;;;;;;-140.72;100.00;52553.19;5013638;28;19917;-84
2022/05/12 03:59:48;;;;;;;;;;;;;;;-140.72;100.00;52545.06;5013091;28;19997;-83
2022/05/12 04:02:13;;;;;;;;;;;;;;;-140.72;100.00;52593.78;5013415;28;19929;-83
2022/05/12 04:04:41;;;;;;;;;;;;;;;-140.72;100.00;52561.31;5012739;28;19993;-84
2022/05/12 04:07:06;;;;;;;;;;;;;;;-140.72;100.00;52567.41;5012644;28;19917;-83
2022/05/12 04:09:32;;;;;;;;;;;;;;;-140.72;100.00;52567.41;5013301;28;19917;-80
2022/05/12 04:11:57;;;;;;;;;;;;;;;-140.72;100.00;52591.75;5012218;28;20341;-81
2022/05/12 04:14:22;;;;;;;;;;;;;;;-140.72;100.00;52591.75;5012170;28;19921;-81
2022/05/12 04:16:48;;;;;;;;;;;;;;;-140.72;100.00;52577.53;5012301;28;19917;-79
2022/05/12 04:19:13;;;;;;;;;;;;;;;-140.72;100.00;52601.91;5011716;28;19922;-80
2022/05/12 04:21:39;;;;;;;;;;;;;;;-140.72;100.00;52557.25;5011376;28;19925;-79
2022/05/12 04:24:05;;;;;;;;;;;;;;;-140.72;100.00;52593.78;5012460;28;19921;-81
2022/05/12 04:26:32;;;;;;;;;;;;;;;-140.72;100.00;52573.50;5012886;28;19918;-81
2022/05/12 04:28:57;;;;;;;;;;;;;;;-140.72;100.00;52565.38;5011611;28;19921;-82
2022/05/12 04:31:22;;;;;;;;;;;;;;;-140.72;100.00;52545.06;5012487;28;20364;-82
2022/05/12 04:36:33;;;;;;;;;;;;;;;-140.72;100.00;52561.31;4968590;28;19976;-83
2022/05/12 04:39:03;;;;;;;;;;;;;;;-140.72;100.00;52557.25;5013893;28;19918;-81
2022/05/12 04:41:28;;;;;;;;;;;;;;;-140.72;100.00;52549.13;5012876;28;19929;-83
2022/05/12 04:43:54;;;;;;;;;;;;;;;-140.72;100.00;52545.06;5013072;28;19926;-82
2022/05/12 04:46:20;;;;;;;;;;;;;;;-140.72;100.00;52547.09;5012792;28;19964;-82
2022/05/12 04:48:45;;;;;;;;;;;;;;;-140.72;100.00;52541.03;5005382;28;19918;-83
2022/05/12 04:51:35;;;;;;;;;;;;;;;-140.72;100.00;52561.31;5028250;23;19929;-82
2022/05/12 04:54:02;;;;;;;;;;;;;;;-140.72;100.00;52565.38;5023858;28;19921;-82
2022/05/12 04:56:27;;;;;;;;;;;;;;;-140.72;100.00;52589.72;5026425;28;19917;-84
2022/05/12 04:59:02;;;;;;;;;;;;;;;-140.72;100.00;52549.13;5017255;28;19928;-83
2022/05/12 05:01:27;;;;;;;;;;;;;;;-140.72;100.00;52536.97;5021637;28;20109;-83
2022/05/12 05:03:52;;;;;;;;;;;;;;;-140.72;100.00;52545.06;5016502;28;19933;-81
2022/05/12 05:06:18;;;;;;;;;;;;;;;-140.72;100.00;52536.97;5032112;28;19928;-82
2022/05/12 05:08:46;;;;;;;;;;;;;;;-140.72;100.00;52563.34;5035466;28;19963;-81
2022/05/12 05:11:11;;;;;;;;;;;;;;;-140.72;100.00;52569.44;5035682;28;20002;-81
2022/05/12 05:16:36;;;;;;;;;;;;;;;-140.72;100.00;52520.72;5034261;28;19971;-81
2022/05/12 05:19:02;;;;;;;;;;;;;;;-140.72;100.00;52539.00;5035393;28;20327;-81
2022/05/12 05:21:31;;;;;;;;;;;;;;;-140.72;100.00;52557.25;5032940;28;20020;-81
2022/05/12 05:23:56;;;;;;;;;;;;;;;-140.72;100.00;52528.84;5035754;28;19921;-82
2022/05/12 05:32:28;;;;;;;;;;;;;;;-140.72;100.00;52504.50;5016316;28;19929;-81
2022/05/12 05:34:57;;;;;;;;;;;;;;;-140.72;100.00;52528.84;5015474;28;19917;-80
2022/05/12 05:38:07;;;;;;;;;;;;;;;-140.72;100.00;52541.03;5016359;28;19917;-84
2022/05/12 05:40:33;;;;;;;;;;;;;;;-140.72;100.00;52539.00;4987173;28;19917;-80
2022/05/12 05:42:58;;;;;;;;;;;;;;;-140.72;100.00;52528.84;5031825;28;19929;-80
2022/05/12 05:45:24;;;;;;;;;;;;;;;-140.72;100.00;52559.28;5036624;28;19921;-81
2022/05/12 05:47:54;;;;;;;;;;;;;;;-140.72;100.00;52522.75;5038289;28;19973;-81
2022/05/12 05:53:23;;;;;;;;;;;;;;;-140.72;100.00;52526.81;5035030;28;20416;-80
2022/05/12 05:53:42;;;;;;;;;;;;;;;-140.72;100.00;52524.78;5034720;28;19927;-80
2022/05/12 05:56:12;;;;;;;;;;;;;;;-140.72;100.00;52516.66;5034522;28;19931;-80
2022/05/12 05:58:40;;;;;;;;;;;;;;;-140.72;100.00;52526.81;5034970;28;19975;-79
2022/05/12 06:01:05;;;;;;;;;;;;;;;-140.72;100.00;52547.09;5034401;28;19925;-81
2022/05/12 06:03:30;;;;;;;;;;;;;;;-140.72;100.00;52565.38;5034645;28;20012;-81
2022/05/12 06:05:56;;;;;;;;;;;;;;;-140.72;100.00;52532.91;5035240;28;19924;-81
2022/05/12 06:08:22;;;;;;;;;;;;;;;-140.72;100.00;52526.81;5036232;28;19975;-81
2022/05/12 06:10:47;;;;;;;;;;;;;;;-140.72;100.00;52545.06;5046941;28;19922;-81
2022/05/12 06:13:12;;;;;;;;;;;;;;;-140.72;100.00;52512.59;5049599;28;19917;-81
2022/05/12 06:15:38;;;;;;;;;;;;;;;-140.72;100.00;52532.91;5047591;28;19967;-82
2022/05/12 06:18:12;;;;;;;;;;;;;;;-140.72;100.00;52516.66;5042999;28;19952;-81
2022/05/12 06:20:37;;;;;;;;;;;;;;;-140.72;100.00;52496.38;5045722;28;19917;-80
2022/05/12 06:23:03;;;;;;;;;;;;;;;-140.72;100.00;52478.13;5038085;28;19928;-81
2022/05/12 06:25:28;;;;;;;;;;;;;;;-140.72;100.00;52520.72;5035767;28;19925;-82
2022/05/12 06:27:53;;;;;;;;;;;;;;;-140.72;100.00;52478.13;5028564;28;19925;-79
2022/05/12 06:30:18;;;;;;;;;;;;;;;-140.72;100.00;52467.97;5029168;28;20352;-80
2022/05/12 06:32:44;;;;;;;;;;;;;;;-140.72;100.00;52486.22;5027407;28;20346;-80
2022/05/12 06:35:11;;;;;;;;;;;;;;;-140.72;100.00;52478.13;5031483;28;19921;-80
2022/05/12 06:37:36;;;;;;;;;;;;;;;-140.72;100.00;52500.44;5032323;28;19917;-80
2022/05/12 06:40:02;;;;;;;;;;;;;;;-140.72;100.00;52480.16;5032150;28;19921;-81
2022/05/12 06:42:28;;;;;;;;;;;;;;;-140.72;100.00;52492.31;5029544;28;19971;-80
2022/05/12 06:44:54;;;;;;;;;;;;;;;-140.72;100.00;52494.34;5031912;28;20394;-80
2022/05/12 06:47:19;;;;;;;;;;;;;;;-140.72;100.00;52490.28;5030996;28;20012;-80
2022/05/12 06:49:48;;;;;;;;;;;;;;;-140.72;100.00;52455.78;5031063;28;19960;-80
2022/05/12 06:52:14;;;;;;;;;;;;;;;-140.72;100.00;52510.59;5033777;28;19921;-80
2022/05/12 06:54:40;;;;;;;;;;;;;;;-140.72;100.00;52484.19;5041103;28;19928;-80
2022/05/12 06:57:06;;;;;;;;;;;;;;;-140.72;100.00;52472.03;5047959;28;19975;-81
2022/05/12 06:59:31;;;;;;;;;;;;;;;-140.72;100.00;52457.81;5040206;28;19929;-81
2022/05/12 07:01:56;;;;;;;;;;;;;;;-140.72;100.00;52449.72;5049469;28;19920;-78
2022/05/12 07:04:24;;;;;;;;;;;;;;;-140.72;100.00;52467.97;5043245;28;20390;-78
2022/05/12 07:06:50;;;;;;;;;;;;;;;-140.72;100.00;52482.16;5036982;28;20023;-80
2022/05/12 07:09:18;;;;;;;;;;;;;;;-140.72;100.00;52492.31;5040553;28;19925;-80
2022/05/12 07:11:43;;;;;;;;;;;;;;;-140.72;100.00;52392.88;5044981;28;20384;-81
2022/05/12 07:14:14;;;;;;;;;;;;;;;-140.72;100.00;52443.63;5042258;28;19935;-80
2022/05/12 07:16:48;;;;;;;;;;;;;;;-140.72;100.00;52411.16;5043225;28;19921;-81
2022/05/12 07:19:19;;;;;;;;;;;;;;;-140.72;100.00;52449.72;5039657;28;19957;-81
2022/05/12 07:27:38;;;;;;;;;;;;;;;-140.72;100.00;52427.38;5046285;28;20486;-81
2022/05/12 07:30:04;;;;;;;;;;;;;;;-140.72;100.00;52463.91;5049123;28;19928;-81
2022/05/12 07:32:44;;;;;;;;;;;;;;;-140.72;100.00;52421.28;5040259;28;19924;-81
2022/05/12 07:35:11;;;;;;;;;;;;;;;-140.72;100.00;52447.69;5049906;28;19917;-81
2022/05/12 07:37:56;;;;;;;;;;;;;;;-140.72;100.00;52459.84;5050965;28;19937;-81
2022/05/12 07:40:30;;;;;;;;;;;;;;;-140.72;100.00;52427.38;5052940;28;19928;-81
2022/05/12 07:42:55;;;;;;;;;;;;;;;-140.72;100.00;52407.09;5049577;28;19984;-80
2022/05/12 07:45:21;;;;;;;;;;;;;;;-140.72;100.00;52411.16;5039762;28;19928;-81
2022/05/12 07:47:46;;;;;;;;;;;;;;;-140.72;100.00;52407.09;5046605;28;19916;-81
2022/05/12 07:50:11;;;;;;;;;;;;;;;-140.72;100.00;52409.13;5049793;28;19928;-81
2022/05/12 07:52:36;;;;;;;;;;;;;;;-140.72;100.00;52455.78;5049983;28;19921;-81
2022/05/12 07:55:01;;;;;;;;;;;;;;;-140.72;100.00;52405.06;5048518;28;19954;-81
2022/05/12 07:57:27;;;;;;;;;;;;;;;-140.72;100.00;52394.91;5049116;28;19924;-81
2022/05/12 07:59:52;;;;;;;;;;;;;;;-140.72;100.00;52384.78;5046383;28;20851;-81
2022/05/12 08:02:18;;;;;;;;;;;;;;;-140.72;100.00;52398.97;5051707;28;19925;-81
2022/05/12 08:04:44;;;;;;;;;;;;;;;-140.72;100.00;52421.28;5053029;28;20282;-80
2022/05/12 08:07:09;;;;;;;;;;;;;;;-140.72;100.00;52390.84;5050290;28;19917;-81
2022/05/12 08:09:34;;;;;;;;;;;;;;;-140.72;100.00;52398.97;5053241;28;19967;-80
2022/05/12 08:12:00;;;;;;;;;;;;;;;-140.72;100.00;52394.91;5048970;28;19956;-81
2022/05/12 08:14:25;;;;;;;;;;;;;;;-140.72;100.00;52352.31;5039563;28;19925;-81
2022/05/12 08:16:51;;;;;;;;;;;;;;;-140.72;100.00;52334.03;5043514;28;19928;-81
2022/05/12 08:19:17;;;;;;;;;;;;;;;-140.72;100.00;52342.16;5052992;28;19917;-81
2022/05/12 08:21:42;;;;;;;;;;;;;;;-140.72;100.00;52334.03;5038123;28;20290;-80
2022/05/12 08:24:09;;;;;;;;;;;;;;;-140.72;100.00;52356.38;5024988;28;19927;-81
2022/05/12 08:26:35;;;;;;;;;;;;;;;-140.72;100.00;52366.50;5044994;28;20387;-81
2022/05/12 08:29:00;;;;;;;;;;;;;;;-140.72;100.00;52342.16;5044942;28;19948;-82
2022/05/12 08:31:29;;;;;;;;;;;;;;;-140.72;100.00;52342.16;5041353;28;19917;-81
2022/05/12 08:33:55;;;;;;;;;;;;;;;-140.72;100.00;52364.47;5036664;28;19917;-81
2022/05/12 08:36:20;;;;;;;;;;;;;;;-140.72;100.00;52332.03;5036656;28;20396;-81
2022/05/12 08:38:45;;;;;;;;;;;;;;;-140.72;100.00;52291.44;5043712;28;19917;-81
2022/05/12 08:41:21;;;;;;;;;;;;;;;-140.72;100.00;52330.00;5045533;28;19913;-80
2022/05/12 08:43:53;;;;;;;;;;;;;;;-140.72;100.00;52279.25;5037607;28;19928;-81
2022/05/12 08:46:20;;;;;;;;;;;;;;;-140.72;100.00;52256.94;5037484;28;19925;-81
2022/05/12 08:48:46;;;;;;;;;;;;;;;-140.72;100.00;52297.53;5047788;28;19939;-81
2022/05/12 08:51:16;;;;;;;;;;;;;;;-140.72;100.00;52291.44;5047529;28;19928;-81
2022/05/12 08:53:47;;;;;;;;;;;;;;;-140.72;100.00;52238.69;5043188;28;19917;-81
2022/05/12 08:56:13;;;;;;;;;;;;;;;-140.72;100.00;52313.75;5041160;28;19917;-79
2022/05/12 08:58:40;;;;;;;;;;;;;;;-140.72;100.00;52242.75;5038644;28;19944;-81
2022/05/12 09:01:06;;;;;;;;;;;;;;;-140.72;100.00;52267.09;5041960;28;19920;-82
2022/05/12 09:03:48;;;;;;;;;;;;;;;-140.72;100.00;52307.66;5040091;28;20439;-81
2022/05/12 09:06:17;;;;;;;;;;;;;;;-140.72;100.00;52248.81;5036189;28;19985;-80
2022/05/12 09:08:45;;;;;;;;;;;;;;;-140.72;100.00;52196.06;5043494;28;19928;-81
2022/05/12 09:11:29;;;;;;;;;;;;;;;-140.72;100.00;52163.59;5044739;28;19917;-80
2022/05/12 09:13:55;;;;;;;;;;;;;;;-140.72;100.00;52151.44;5041409;28;20127;-81
2022/05/12 09:16:24;;;;;;;;;;;;;;;-140.72;100.00;52224.47;5037982;28;20475;-81
2022/05/12 09:18:53;;;;;;;;;;;;;;;-140.72;100.00;52204.19;5036174;28;20051;-81
2022/05/12 09:21:38;;;;;;;;;;;;;;;-140.72;100.00;52163.59;5031332;28;20451;-82
2022/05/12 09:24:04;;;;;;;;;;;;;;;-140.72;100.00;52189.97;5035883;28;19921;-82
2022/05/12 09:26:32;;;;;;;;;;;;;;;-140.72;100.00;52163.59;5036599;28;19924;-81
2022/05/12 09:29:12;;;;;;;;;;;;;;;-140.72;100.00;52258.97;5041038;28;20253;-82
2022/05/12 09:31:37;;;;;;;;;;;;;;;-140.72;100.00;52236.66;5035342;28;19929;-82
2022/05/12 09:34:24;;;;;;;;;;;;;;;-140.72;100.00;52228.53;5038690;28;19925;-81
2022/05/12 09:36:49;;;;;;;;;;;;;;;-140.72;100.00;52194.03;5035570;28;19932;-82
2022/05/12 09:39:37;;;;;;;;;;;;;;;-140.72;100.00;52277.22;5035624;28;20343;-82
2022/05/12 09:42:03;;;;;;;;;;;;;;;-140.72;100.00;52244.78;5029423;28;19920;-81
2022/05/12 09:44:30;;;;;;;;;;;;;;;-140.72;100.00;52208.25;5044333;28;20475;-82
2022/05/12 09:47:12;;;;;;;;;;;;;;;-140.72;100.00;52226.50;5043588;28;20017;-82
2022/05/12 09:49:39;;;;;;;;;;;;;;;-140.72;100.00;52275.19;5043196;28;19917;-82
2022/05/12 09:52:24;;;;;;;;;;;;;;;-140.72;100.00;52192.00;5040974;28;19921;-82
2022/05/12 09:55:08;;;;;;;;;;;;;;;-140.72;100.00;52147.38;5045412;28;20012;-82
2022/05/12 09:57:35;;;;;;;;;;;;;;;-140.72;100.00;52163.59;5045013;28;19929;-82
2022/05/12 10:00:03;;;;;;;;;;;;;;;-140.72;100.00;52102.75;5046228;28;20618;-84
2022/05/12 10:08:17;;;;;;;;;;;;;;;-140.72;100.00;52056.06;4987899;28;19933;-82
2022/05/12 10:10:42;;;;;;;;;;;;;;;-140.72;100.00;52078.38;5018917;28;20308;-82
2022/05/12 10:13:21;;;;;;;;;;;;;;;-140.72;100.00;52102.75;5044819;28;20391;-81
2022/05/12 10:15:51;;;;;;;;;;;;;;;-140.72;100.00;52094.63;5045391;28;20379;-82
2022/05/12 10:18:25;;;;;;;;;;;;;;;-140.72;100.00;52052.00;5042737;28;19935;-81
2022/05/12 10:20:53;;;;;;;;;;;;;;;-140.72;100.00;52161.56;5046218;28;19920;-81
2022/05/12 10:23:24;;;;;;;;;;;;;;;-140.72;100.00;52082.44;5045271;28;20001;-81
2022/05/12 10:26:15;;;;;;;;;;;;;;;-140.72;100.00;52082.44;5045214;28;19925;-82
2022/05/12 10:28:50;;;;;;;;;;;;;;;-140.72;100.00;52123.03;5042084;28;19923;-81
2022/05/12 10:31:27;;;;;;;;;;;;;;;-140.72;100.00;52054.03;5046710;28;19920;-81
2022/05/12 10:34:11;;;;;;;;;;;;;;;-140.72;100.00;52045.94;5048225;28;19977;-82
2022/05/12 10:36:36;;;;;;;;;;;;;;;-140.72;100.00;52133.16;5049422;28;20045;-82
2022/05/12 10:39:10;;;;;;;;;;;;;;;-140.72;100.00;52167.66;5049365;28;20445;-82
2022/05/12 10:41:40;;;;;;;;;;;;;;;-140.72;100.00;52169.69;5048088;28;19920;-82
2022/05/12 10:44:17;;;;;;;;;;;;;;;-140.72;100.00;52072.31;5048539;28;19977;-82
2022/05/12 10:47:03;;;;;;;;;;;;;;;-140.72;100.00;52054.03;5048914;28;19917;-82
2022/05/12 10:49:44;;;;;;;;;;;;;;;-140.72;100.00;52017.53;5047769;28;19925;-82
2022/05/12 10:52:29;;;;;;;;;;;;;;;-140.72;100.00;52155.50;5047397;28;20015;-82
2022/05/12 10:55:14;;;;;;;;;;;;;;;-140.72;100.00;52171.72;5043463;28;20419;-83
2022/05/12 10:57:50;;;;;;;;;;;;;;;-140.72;100.00;52049.97;5045990;28;19917;-82
2022/05/12 11:00:39;;;;;;;;;;;;;;;-140.72;100.00;52082.44;5045374;28;19925;-82
2022/05/12 11:03:24;;;;;;;;;;;;;;;-140.72;100.00;52080.41;5038685;28;19974;-85
2022/05/12 11:06:04;;;;;;;;;;;;;;;-140.72;100.00;52171.72;5035819;28;19916;-85
2022/05/12 11:08:46;;;;;;;;;;;;;;;-140.72;100.00;52068.25;5049436;28;20000;-85
2022/05/12 11:11:15;;;;;;;;;;;;;;;-140.72;100.00;51968.81;5049579;28;20388;-84
2022/05/12 11:13:43;;;;;;;;;;;;;;;-140.72;100.00;51928.25;5047814;28;19925;-85
2022/05/12 11:16:15;;;;;;;;;;;;;;;-140.72;100.00;52017.53;5050485;28;19920;-85
2022/05/12 11:19:01;;;;;;;;;;;;;;;-140.72;100.00;52013.47;5046857;28;19917;-85
2022/05/12 11:21:29;;;;;;;;;;;;;;;-140.72;100.00;51942.44;5049227;28;20472;-85
2022/05/12 11:24:13;;;;;;;;;;;;;;;-140.72;100.00;51901.88;5049456;28;19917;-85
2022/05/12 11:26:57;;;;;;;;;;;;;;;-140.72;97.90;51987.09;5051762;28;19924;-85
2022/05/12 11:29:44;;;;;;;;;;;;;;;-140.72;100.00;51950.56;5051550;28;20103;-85
2022/05/12 11:32:14;;;;;;;;;;;;;;;-140.72;100.00;51960.72;5049832;28;20325;-85
2022/05/12 12:12:37;;;;;;;;;;;;;;;-140.72;100.00;51871.44;6077761;22;20304;-69
2022/05/12 12:15:02;;;;;;;;;;;;;;;-140.72;100.00;52086.50;4972958;28;20458;-69
2022/05/12 12:17:30;;;;;;;;;;;;;;;-140.72;100.00;52189.97;4984424;28;20025;-68
2022/05/12 12:19:57;;;;;;;;;;;;;;;-140.72;100.00;52090.56;4976479;28;20374;-69
2022/05/12 12:22:26;;;;;;;;;;;;;;;-140.72;100.00;52025.63;4977974;28;19956;-70
2022/05/12 12:24:57;;;;;;;;;;;;;;;-140.72;100.00;52143.31;4997310;28;19968;-69
2022/05/12 12:27:27;;;;;;;;;;;;;;;-140.72;100.00;52204.19;4996851;28;19918;-69
2022/05/12 12:29:53;;;;;;;;;;;;;;;-140.72;100.00;52200.13;4982442;28;19918;-68
2022/05/12 12:32:18;;;;;;;;;;;;;;;-140.72;100.00;52187.97;5008447;28;20345;-68
2022/05/12 12:34:52;;;;;;;;;;;;;;;-140.72;100.00;52206.22;4974120;28;19965;-67
2022/05/12 12:37:36;;;;;;;;;;;;;;;-140.72;100.00;52049.97;4960545;28;19929;-69
2022/05/12 12:40:21;;;;;;;;;;;;;;;-140.72;100.00;52177.81;4992014;28;20024;-69
2022/05/12 12:42:46;;;;;;;;;;;;;;;-140.72;100.00;52196.06;4984388;28;19922;-69
2022/05/12 12:45:11;;;;;;;;;;;;;;;-140.72;100.00;52155.50;4954654;29;19969;-69
2022/05/12 12:47:39;;;;;;;;;;;;;;;-140.72;100.00;52147.38;4974981;28;19977;-69
2022/05/12 12:50:16;;;;;;;;;;;;;;;-140.72;100.00;52183.91;4973959;28;19976;-69
2022/05/12 12:52:43;;;;;;;;;;;;;;;-140.72;100.00;52183.91;4975351;28;20117;-69
2022/05/12 12:58:27;;;;;;;;;;;;;;;-140.72;100.00;52088.53;4978010;28;19985;-69
2022/05/12 13:00:57;;;;;;;;;;;;;;;-140.72;100.00;52204.19;4972408;28;19926;-69
2022/05/12 13:03:26;;;;;;;;;;;;;;;-140.72;100.00;52106.78;4971913;28;19919;-69
2022/05/12 13:06:05;;;;;;;;;;;;;;;-140.72;100.00;52141.28;4972539;28;20353;-69
2022/05/12 13:08:31;;;;;;;;;;;;;;;-140.72;100.00;52135.19;4954921;28;19954;-69
2022/05/12 13:10:58;;;;;;;;;;;;;;;-140.72;100.00;52094.63;4957380;28;19965;-69
2022/05/12 13:13:24;;;;;;;;;;;;;;;-140.72;100.00;52171.72;4982273;28;19922;-69
2022/05/12 13:15:53;;;;;;;;;;;;;;;-140.72;100.00;52196.06;4963337;28;19925;-69
2022/05/12 13:18:29;;;;;;;;;;;;;;;-140.72;100.00;52157.53;4973092;28;19945;-69
2022/05/12 13:20:55;;;;;;;;;;;;;;;-140.72;100.00;52064.19;4956094;28;19918;-69
2022/05/12 13:23:23;;;;;;;;;;;;;;;-140.72;100.00;52141.28;4974516;28;19922;-70
2022/05/12 13:25:49;;;;;;;;;;;;;;;-140.72;100.00;52183.91;4980946;28;20005;-69
2022/05/12 13:28:18;;;;;;;;;;;;;;;-140.72;100.00;52155.50;4984377;28;19950;-69
2022/05/12 13:30:45;;;;;;;;;;;;;;;-140.72;100.00;52147.38;4989569;28;19921;-70
2022/05/12 13:33:13;;;;;;;;;;;;;;;-140.72;100.00;52187.97;4980862;28;19918;-69
2022/05/12 13:35:39;;;;;;;;;;;;;;;-140.72;100.00;52194.03;4979764;28;19918;-69